»·PEaware :: SWA490 KLAS-KSAN

SWA490 :: KLAS-KSAN

FLIGHT INFORMATION

Flight Status: Arrived
Operator:
Southwest Airlines
More flights by this operator :: More flights under this callsign
Pilot: Steve F. (26981)
Aircraft: BOEING 737-900
(B739)
More flights by this aircraft type
Origin: KLAS Harry Reid Intl
United States
Destination: KSAN San Diego Intl-Lindbergh
United States
More flights between these airports :: More routes between these airports
Route: RADYR2 LVELL LUCKI1
File this flight plan on PilotEdge
Remarks:
Altitude:
(Current/Filed)
28,000ft
Speed:
(Current/Filed)
430kts
Departed: 20-Aug-23 07:41 AM
Arrived: 20-Aug-23 08:20 AM
Distance/Time
Traveled:
225nm/0:39
Distance/Time
To Go:
Arrived

Flight Plot

Page will automatically refresh every two minutes.

Flight plan parsing failed; only flown route is shown


Map Options




Map Legend


Flown Route
Filed Route
Departure Airport
Arrival Airport
Navaid (VOR, NDB)
Fix

Horizontal Profiles

Position Reports

Time Latitude Longitude Heading Altitude Ground
Speed
20-Aug-23 07:14 36.082994 -115.149114 63 2189ft 0kts
20-Aug-23 07:16 36.082994 -115.149114 63 2189ft 0kts
20-Aug-23 07:17 36.082994 -115.149114 63 2189ft 0kts
20-Aug-23 07:17 36.082994 -115.149114 63 2189ft 0kts
20-Aug-23 07:18 36.082994 -115.149114 63 2189ft 0kts
20-Aug-23 07:19 36.082994 -115.149114 63 2189ft 0kts
20-Aug-23 07:20 36.082994 -115.149114 63 2189ft 0kts
20-Aug-23 07:22 36.082994 -115.149114 63 2189ft 0kts
20-Aug-23 07:22 36.082994 -115.149114 63 2189ft 0kts
20-Aug-23 07:23 36.082994 -115.149114 63 2189ft 0kts
20-Aug-23 07:24 36.082994 -115.149114 63 2189ft 0kts
20-Aug-23 07:25 36.082994 -115.149114 63 2189ft 0kts
20-Aug-23 07:26 36.082994 -115.149114 63 2189ft 0kts
20-Aug-23 07:27 36.082896 -115.149362 63 2189ft 2kts
20-Aug-23 07:28 36.082789 -115.149778 100 2189ft 0kts
20-Aug-23 07:29 36.082789 -115.149778 100 2189ft 0kts
20-Aug-23 07:30 36.082075 -115.149081 153 2189ft 9kts
20-Aug-23 07:31 36.078705 -115.147144 141 2189ft 16kts
20-Aug-23 07:32 36.078273 -115.141116 89 2189ft 21kts
20-Aug-23 07:33 36.078279 -115.132549 90 2189ft 27kts
20-Aug-23 07:34 36.078288 -115.123333 90 2189ft 14kts
20-Aug-23 07:35 36.077642 -115.121692 128 2189ft 10kts
20-Aug-23 07:40 35.884260 -115.322889 183 13357ft 243kts
20-Aug-23 07:41 35.810002 -115.339023 187 14840ft 305kts
20-Aug-23 07:42 35.718032 -115.361245 188 15978ft 357kts
20-Aug-23 07:43 35.618259 -115.384260 184 17907ft 371kts
20-Aug-23 07:44 35.513743 -115.381203 176 19618ft 382kts
20-Aug-23 07:45 35.406247 -115.373464 175 21105ft 393kts
20-Aug-23 07:46 35.295666 -115.365629 175 22420ft 402kts
20-Aug-23 07:47 35.182921 -115.357683 175 23524ft 410kts
20-Aug-23 07:48 35.067883 -115.349604 175 24450ft 419kts
20-Aug-23 07:49 34.950441 -115.341438 175 25305ft 425kts
20-Aug-23 07:50 34.831475 -115.333214 175 26063ft 432kts
20-Aug-23 07:51 34.712133 -115.360594 196 26797ft 443kts
20-Aug-23 07:52 34.596460 -115.411703 196 27704ft 444kts
20-Aug-23 07:53 34.480005 -115.462575 196 27917ft 444kts
20-Aug-23 07:54 34.363384 -115.513234 196 27924ft 446kts
20-Aug-23 07:55 34.252891 -115.583321 207 27922ft 451kts
20-Aug-23 07:56 34.140573 -115.648230 197 27918ft 448kts
20-Aug-23 07:57 34.024586 -115.702579 198 27912ft 448kts
20-Aug-23 07:58 33.908218 -115.757377 198 27902ft 448kts
20-Aug-23 07:59 33.793010 -115.814045 199 27885ft 448kts
20-Aug-23 08:00 33.676968 -115.868982 198 27789ft 449kts
20-Aug-23 08:01 33.560179 -115.923510 198 25799ft 449kts
20-Aug-23 08:02 33.468308 -116.023595 229 23404ft 456kts
20-Aug-23 08:03 33.398491 -116.145429 229 21001ft 429kts
20-Aug-23 08:04 33.326800 -116.251118 210 18868ft 387kts
20-Aug-23 08:05 33.236051 -116.309861 200 16861ft 358kts
20-Aug-23 08:06 33.148860 -116.360643 199 15030ft 338kts
20-Aug-23 08:07 33.067112 -116.408298 197 13442ft 317kts
20-Aug-23 08:08 32.991979 -116.457261 208 11967ft 317kts
20-Aug-23 08:09 32.926140 -116.524368 210 10654ft 302kts
20-Aug-23 08:10 32.863329 -116.587464 214 9386ft 292kts
20-Aug-23 08:11 32.799737 -116.651711 215 8371ft 310kts
20-Aug-23 08:12 32.747670 -116.731415 239 7359ft 299kts
20-Aug-23 08:13 32.708697 -116.816231 241 6137ft 287kts
20-Aug-23 08:14 32.681036 -116.904417 250 4734ft 282kts
20-Aug-23 08:15 32.684912 -116.989011 294 3474ft 246kts
20-Aug-23 08:16 32.702370 -117.064449 289 2357ft 217kts
20-Aug-23 08:17 32.718192 -117.122583 298 1164ft 163kts
20-Aug-23 08:18 32.731412 -117.181037 286 37ft 189kts
20-Aug-23 08:19 32.736871 -117.204285 198 23ft 0kts

Navigation Log

Ident Type
Flight plan parsing failed, navigation log unavailable